Latest Weather Observations for Forbes

IDN60801

Issued at 10:05 pm EST Monday 21 April 2014 (issued every 30 minutes, with the page automatically refreshed every 10 minutes)

About weather observations | Map of weather stations | Latest weather observations for NSW | Other Formats
Station Details ID: 065103 Name: FORBES AIRPORT AWS Lat: -33.36 Lon: 147.92 Height: 230.4 m
Data from the previous 72 hours. | See also: Recent months at Forbes
Date/Time
EST
Temp
°C
App
Temp
°C
Dew
Point
Rel
Hum
%
Delta-T
°C
Wind Press
QNH
hPa
Press
MSL
hPa
Rain
since 9 am
mm
Dir
 
Spd
km/h
Gust
km/h
Spd
kts
Gust
kts
21/10:00pm 8.3 6.2 5.9 85 1.1 N 6 9 3 5 1020.9 1020.5 0.0
21/09:30pm 8.2 5.9 5.8 85 1.1 ENE 7 9 4 5 1020.6 - 0.0
21/09:00pm 8.7 7.4 6.0 83 1.2 NNE 2 9 1 5 1020.6 1020.2 0.0
21/08:30pm 9.3 7.3 6.4 82 1.4 NE 6 7 3 4 1020.5 - 0.0
21/08:00pm 10.3 9.6 7.0 80 1.6 CALM 0 0 0 0 1020.4 1020.0 0.0
21/07:30pm 11.1 10.3 6.6 74 2.2 CALM 0 6 0 3 1020.4 - 0.0
21/07:00pm 11.9 10.0 7.6 75 2.1 SE 7 9 4 5 1020.1 1019.7 0.0
21/06:30pm 12.2 10.0 6.3 67 2.8 ESE 7 7 4 4 1019.9 - 0.0
21/06:00pm 13.5 12.7 6.4 62 3.4 SSW 0 0 0 0 1019.7 1019.3 0.0
21/05:30pm 16.2 15.3 6.1 51 5.0 CALM 0 0 0 0 1019.7 - 0.0
21/05:00pm 17.7 16.4 5.9 46 5.8 SSW 2 6 1 3 1019.5 1019.1 0.0
21/04:30pm 18.8 16.0 5.3 41 6.6 SSW 9 13 5 7 1019.4 - 0.0
21/04:00pm 19.2 16.6 6.0 42 6.6 SW 9 15 5 8 1019.3 1018.8 0.0
21/03:30pm 19.1 16.3 5.2 40 6.8 SW 9 15 5 8 1019.3 - 0.0
21/03:00pm 19.4 16.7 5.8 41 6.8 W 9 17 5 9 1019.4 1019.0 0.0
21/02:30pm 19.3 16.8 6.4 43 6.5 WSW 9 13 5 7 1019.4 - 0.0
21/02:00pm 18.7 16.9 5.5 42 6.5 SSE 4 9 2 5 1019.5 1019.1 0.0
21/01:30pm 18.9 17.5 5.7 42 6.6 NW 2 6 1 3 1019.7 - 0.0
21/01:00pm 18.2 16.5 6.1 45 6.0 ENE 4 11 2 6 1020.1 1019.7 0.0
21/12:30pm 17.7 15.5 5.3 44 6.1 NNE 6 11 3 6 1020.6 - 0.0
21/12:00pm 17.3 15.0 4.9 44 6.0 E 6 15 3 8 1021.0 1020.6 0.0
21/11:30am 16.3 13.5 5.3 48 5.3 SSE 9 13 5 7 1021.5 - 0.0
21/11:00am 15.7 13.2 5.0 49 5.1 S 7 17 4 9 1022.1 1021.7 0.0
21/10:30am 15.1 12.2 4.5 49 5.0 S 9 15 5 8 1022.6 - 0.0
21/10:00am 14.5 12.4 5.8 56 4.2 S 6 9 3 5 1022.6 1022.1 0.0
21/09:30am 13.1 12.1 7.5 69 2.8 S 2 7 1 4 1022.7 - 0.0
21/09:00am 11.6 9.7 7.5 76 2.0 ESE 7 9 4 5 1022.8 1022.3 0.0
21/08:30am 10.1 9.6 8.0 87 1.0 CALM 0 0 0 0 1022.7 - 0.0
21/08:00am 7.6 6.8 6.5 93 0.5 CALM 0 0 0 0 1022.6 1022.1 0.0
21/07:30am 5.4 4.3 5.1 98 0.1 CALM 0 0 0 0 1021.9 - 0.0
21/07:00am 3.5 2.0 3.2 98 0.1 CALM 0 0 0 0 1021.5 1021.1 0.0
21/06:30am 3.4 0.8 3.1 98 0.1 S 6 7 3 4 1021.1 - 0.0
21/06:00am 3.5 2.0 3.2 98 0.1 CALM 0 0 0 0 1020.9 1020.5 0.0
21/05:30am 3.4 1.9 3.0 97 0.2 CALM 0 0 0 0 1020.6 - 0.0
21/05:00am 3.3 1.7 2.6 95 0.3 S 0 0 0 0 1020.3 1019.9 0.0
21/04:30am 4.3 2.9 3.6 95 0.3 CALM 0 0 0 0 1020.2 - 0.0
21/04:00am 4.4 3.0 3.8 96 0.3 CALM 0 0 0 0 1020.0 1019.6 0.0
21/03:30am 4.6 3.3 3.9 95 0.3 CALM 0 0 0 0 1020.0 - 0.0
21/03:00am 5.3 2.8 4.6 95 0.3 S 7 9 4 5 1019.8 1019.4 0.0
21/02:30am 5.6 3.7 4.9 95 0.3 S 4 7 2 4 1020.1 - 0.0
21/02:00am 5.5 4.3 4.6 94 0.4 CALM 0 0 0 0 1020.2 1019.8 0.0
21/01:30am 5.7 4.5 4.8 94 0.4 CALM 0 0 0 0 1020.2 - 0.0
21/01:00am 6.2 5.1 5.0 92 0.5 CALM 0 0 0 0 1020.4 1020.0 0.0
21/12:30am 6.0 4.8 4.5 90 0.7 ENE 0 0 0 0 1020.4 - 0.0
21/12:00am 6.5 5.3 4.7 88 0.8 SSE 0 0 0 0 1020.4 1020.0 0.0
 
Date/Time
EST
Temp
°C
App
Temp
°C
Dew
Point
Rel
Hum
%
Delta-T
°C
Wind Press
QNH
hPa
Press
MSL
hPa
Rain
since 9 am
mm
Dir
 
Spd
km/h
Gust
km/h
Spd
kts
Gust
kts
20/11:30pm 7.2 6.0 4.7 84 1.1 CALM 0 0 0 0 1020.5 - 0.0
20/11:00pm 8.2 7.1 5.1 81 1.4 CALM 0 0 0 0 1020.4 1020.0 0.0
20/10:30pm 9.1 6.9 5.1 76 1.8 SSE 6 7 3 4 1020.5 - 0.0
20/10:00pm 10.3 7.1 5.3 71 2.3 S 11 13 6 7 1020.4 1020.0 0.0
20/09:30pm 11.0 7.6 5.7 70 2.5 S 13 17 7 9 1020.1 - 0.0
20/09:00pm 11.0 7.6 5.7 70 2.5 S 13 15 7 8 1019.9 1019.5 0.0
20/08:30pm 11.1 7.7 5.8 70 2.5 S 13 15 7 8 1019.8 - 0.0
20/08:00pm 11.1 8.1 6.0 71 2.4 S 11 13 6 7 1019.5 1019.1 0.0
20/07:30pm 11.7 9.1 6.0 68 2.7 S 9 11 5 6 1019.3 - 0.0
20/07:00pm 12.5 9.9 6.1 65 3.1 SSW 9 13 5 7 1019.1 1018.6 0.0
20/06:30pm 13.2 10.4 5.1 58 3.8 SW 9 11 5 6 1018.8 - 0.0
20/06:00pm 13.6 10.4 5.3 57 3.9 SW 11 13 6 7 1018.4 1017.9 0.0
20/05:30pm 15.6 12.7 4.9 49 5.1 SW 9 15 5 8 1018.0 - 0.0
20/05:00pm 17.4 13.6 4.0 41 6.3 SW 13 17 7 9 1017.9 1017.4 0.0
20/04:30pm 18.2 14.5 4.4 40 6.6 SW 13 19 7 10 1017.6 - 0.0
20/04:00pm 18.6 15.2 5.8 43 6.3 WSW 13 20 7 11 1017.5 1017.1 0.0
20/03:30pm 18.8 14.5 5.3 41 6.6 SSW 17 22 9 12 1017.5 - 0.0
20/03:00pm 18.9 14.1 5.4 41 6.7 SSW 20 24 11 13 1017.5 1017.1 0.0
20/02:30pm 18.9 15.1 5.7 42 6.6 WSW 15 24 8 13 1017.4 - 0.0
20/02:00pm 18.7 14.5 5.5 42 6.5 SW 17 24 9 13 1017.5 1017.1 0.0
20/01:30pm 18.2 13.9 5.1 42 6.4 SSW 17 26 9 14 1017.6 - 0.0
20/01:00pm 18.2 13.5 5.1 42 6.4 W 19 30 10 16 1018.0 1017.5 0.0
20/12:30pm 17.4 13.1 5.4 45 5.9 SSW 17 26 9 14 1018.6 - 0.0
20/12:00pm 17.3 13.3 6.5 49 5.4 SW 17 28 9 15 1018.9 1018.4 0.0
20/11:30am 16.5 12.7 5.8 49 5.2 SSW 15 22 8 12 1019.5 - 0.0
20/11:00am 16.0 12.2 5.9 51 4.9 SW 15 22 8 12 1019.8 1019.4 0.0
20/10:30am 15.7 14.2 8.4 62 3.7 SSW 6 11 3 6 1019.7 - 0.0
20/10:00am 14.2 13.1 8.6 69 2.8 S 4 7 2 4 1019.8 1019.4 0.0
20/09:30am 12.2 11.8 8.1 76 2.0 CALM 0 0 0 0 1019.8 - 0.0
20/09:00am 10.4 9.8 7.5 82 1.4 CALM 0 0 0 0 1019.7 1019.3 0.0
20/08:30am 9.4 8.8 7.2 86 1.1 CALM 0 0 0 0 1019.7 - 0.0
20/08:00am 8.0 7.2 6.6 91 0.7 CALM 0 0 0 0 1019.6 1019.2 0.0
20/07:30am 6.2 5.3 6.1 99 0.0 CALM 0 0 0 0 1019.4 - 0.0
20/07:00am 3.5 2.1 3.4 99 0.0 CALM 0 0 0 0 1019.3 1018.8 0.0
20/06:30am 2.6 1.0 2.3 98 0.1 CALM 0 0 0 0 1019.0 - 0.0
20/06:00am 2.6 1.0 2.2 97 0.2 CALM 0 0 0 0 1018.7 1018.2 0.0
20/05:30am 3.1 1.6 2.8 98 0.1 CALM 0 0 0 0 1018.7 - 0.0
20/05:00am 3.2 1.7 2.8 97 0.2 CALM 0 0 0 0 1018.3 1017.8 0.0
20/04:30am 3.5 2.0 3.1 97 0.2 CALM 0 0 0 0 1017.9 - 0.0
20/04:00am 3.2 0.3 2.5 95 0.3 ENE 7 9 4 5 1017.6 1017.2 0.0
20/03:30am 4.1 2.7 3.5 96 0.3 CALM 0 0 0 0 1017.4 - 0.0
20/03:00am 4.2 2.8 3.6 96 0.3 CALM 0 0 0 0 1017.4 1017.0 0.0
20/02:30am 4.2 2.8 3.3 94 0.4 CALM 0 0 0 0 1017.4 - 0.0
20/02:00am 4.4 3.0 3.5 94 0.4 CALM 0 0 0 0 1017.6 1017.2 0.0
20/01:30am 4.6 3.2 3.6 93 0.4 CALM 0 0 0 0 1017.9 - 0.0
20/01:00am 5.6 4.4 4.6 93 0.4 CALM 0 0 0 0 1018.2 1017.7 0.0
20/12:30am 5.8 4.6 4.6 92 0.5 CALM 0 0 0 0 1018.2 - 0.0
20/12:00am 6.2 3.8 4.5 89 0.7 NE 6 7 3 4 1018.5 1018.0 0.0
 
Date/Time
EST
Temp
°C
App
Temp
°C
Dew
Point
Rel
Hum
%
Delta-T
°C
Wind Press
QNH
hPa
Press
MSL
hPa
Rain
since 9 am
mm
Dir
 
Spd
km/h
Gust
km/h
Spd
kts
Gust
kts
19/11:30pm 5.9 2.6 4.4 90 0.7 ENE 11 15 6 8 1018.4 - 0.0
19/11:00pm 6.4 5.2 4.7 89 0.7 CALM 0 0 0 0 1018.5 1018.0 0.0
19/10:30pm 7.0 5.8 4.8 86 1.0 CALM 0 0 0 0 1018.6 - 0.0
19/10:00pm 7.6 6.5 5.2 85 1.1 CALM 0 0 0 0 1018.6 1018.1 0.0
19/09:30pm 7.8 6.8 5.4 85 1.1 CALM 0 0 0 0 1018.7 - 0.0
19/09:00pm 8.2 7.2 5.7 84 1.1 CALM 0 0 0 0 1018.6 1018.1 0.0
19/08:30pm 9.0 8.0 5.7 80 1.5 CALM 0 0 0 0 1018.4 - 0.0
19/08:00pm 10.0 8.0 6.3 78 1.7 SW 6 7 3 4 1018.3 1017.8 0.0
19/07:30pm 10.4 8.3 6.0 74 2.1 SW 6 7 3 4 1018.2 - 0.0
19/07:00pm 11.3 8.9 5.2 66 2.8 WSW 7 9 4 5 1017.9 1017.4 0.0
19/06:30pm 12.1 9.7 5.3 63 3.2 W 7 9 4 5 1017.5 - 0.0
19/06:00pm 13.9 11.2 5.8 58 3.9 S 9 11 5 6 1017.1 1016.7 0.0
19/05:30pm 15.7 12.4 4.4 47 5.3 SSW 11 17 6 9 1016.8 - 0.0
19/05:00pm 17.3 13.6 4.3 42 6.2 SW 13 17 7 9 1016.8 1016.4 0.0
19/04:30pm 18.4 14.0 4.9 41 6.6 WSW 17 24 9 13 1016.6 - 0.0
19/04:00pm 18.4 14.0 4.6 40 6.7 SW 17 26 9 14 1016.6 1016.2 0.0
19/03:30pm 18.3 14.4 5.2 42 6.4 SSW 15 24 8 13 1016.7 - 0.0
19/03:00pm 18.5 13.9 5.7 43 6.3 SW 19 24 10 13 1016.7 1016.3 0.0
19/02:30pm 18.2 14.0 7.3 49 5.6 SSW 19 28 10 15 1016.8 - 0.0
19/02:00pm 18.3 14.1 7.4 49 5.6 SW 19 22 10 12 1017.0 1016.6 0.0
19/01:30pm 18.1 14.4 8.1 52 5.2 SSW 17 22 9 12 1017.1 - 0.0
19/01:00pm 17.6 13.3 7.1 50 5.3 SW 19 26 10 14 1017.7 1017.3 0.0
19/12:30pm 17.6 14.3 8.2 54 4.9 WSW 15 20 8 11 1018.2 - 0.0
19/12:00pm 16.9 12.7 7.5 54 4.8 SSW 19 24 10 13 1018.6 1018.1 0.0
19/11:30am 16.8 12.3 6.3 50 5.2 WSW 19 28 10 15 1018.9 - 0.0
19/11:00am 15.6 11.5 6.3 54 4.6 WSW 17 24 9 13 1019.1 1018.6 0.0
19/10:30am 15.0 11.5 7.3 60 3.8 WSW 15 22 8 12 1019.3 - 0.0
19/10:00am 13.9 10.7 7.0 63 3.4 SW 13 20 7 11 1019.5 1019.1 0.0
19/09:30am 13.4 10.2 7.0 65 3.1 WSW 13 20 7 11 1019.6 - 0.0
19/09:00am 12.6 9.1 7.3 70 2.6 SW 15 20 8 11 1019.5 1019.1 0.0
19/08:30am 11.7 8.5 6.8 72 2.4 SW 13 20 7 11 1019.5 - 0.0
19/08:00am 10.7 7.9 6.8 77 1.9 WSW 11 15 6 8 1019.2 1018.7 0.0
19/07:30am 9.2 6.9 7.5 89 0.8 WSW 9 13 5 7 1019.0 - 0.0
19/07:00am 7.0 4.5 6.6 97 0.2 W 9 11 5 6 1019.0 1018.5 0.0
19/06:30am 6.6 4.0 5.9 95 0.3 W 9 13 5 7 1018.7 - 0.0
19/06:00am 7.4 4.8 6.3 93 0.5 W 9 9 5 5 1018.4 1017.9 0.0
19/05:30am 8.1 5.3 7.0 93 0.5 WSW 11 13 6 7 1018.3 - 0.0
19/05:00am 8.6 6.3 7.4 92 0.6 WSW 9 11 5 6 1018.2 1017.7 0.0
19/04:30am 9.0 6.8 7.8 92 0.6 WSW 9 11 5 6 1018.1 - 0.0
19/04:00am 9.4 7.2 8.0 91 0.7 WSW 9 11 5 6 1017.7 1017.3 0.0
19/03:30am 10.1 8.3 7.9 86 1.1 W 7 11 4 6 1017.7 - 0.0
19/03:00am 11.1 8.7 8.7 85 1.2 SSW 11 15 6 8 1017.5 1017.1 0.0
19/02:30am 11.3 8.5 8.7 84 1.3 SSW 13 15 7 8 1017.5 - 0.0
19/02:00am 12.6 9.6 9.2 80 1.7 S 15 20 8 11 1017.3 1016.9 0.0
19/01:30am 13.3 9.8 10.1 81 1.7 SSW 19 24 10 13 1017.3 - 0.0
19/01:00am 13.8 11.2 10.6 81 1.7 SSW 15 20 8 11 1017.4 1017.0 0.0
19/12:30am 14.3 11.3 10.7 79 1.9 SSW 17 22 9 12 1017.2 - 0.0
19/12:00am 14.8 11.7 10.4 75 2.3 SSW 17 26 9 14 1017.1 1016.7 0.0
 
Date/Time
EST
Temp
°C
App
Temp
°C
Dew
Point
Rel
Hum
%
Delta-T
°C
Wind Press
QNH
hPa
Press
MSL
hPa
Rain
since 9 am
mm
Dir
 
Spd
km/h
Gust
km/h
Spd
kts
Gust
kts
18/11:30pm 15.2 12.4 10.0 71 2.7 SSW 15 19 8 10 1016.9 - 0.0
18/11:00pm 16.0 13.2 10.1 68 3.1 SSW 15 19 8 10 1016.9 1016.5 0.0
18/10:30pm 16.1 13.7 10.0 67 3.2 SW 13 17 7 9 1016.9 - 0.0

Other Formats:

Comma delimited format used in spreadsheet applications
http://www.bom.gov.au/fwo/IDN60801/IDN60801.94715.axf

JavaScript Object Notation format (JSON) in row-major order
http://www.bom.gov.au/fwo/IDN60801/IDN60801.94715.json